Ralston, Canada
Current Conditions -  °F | °C
As of 1:00 PM on Thursday 29 Jan 2015 (Local Time) from CYXH Reporting Station
Few Clouds Few Clouds  
Wind Chill: 40°   Ceiling: Unl
Heat Index: 45°   Visibility: 30mi
Dew Point: 34°   Wind: 8mph
Humidity: 66%   Direction: 230°SW
Pressure: 30.22"   Gusts: NA
Location:  50.25°N, 111.17°W
Report Text: CYXH 292000Z 23007KT 30SM FEW270 07/01 A3022 RMK CI1 SLP261
Loading
Personal Weather Stations






























Interactive Weather Map New forecast layout! Learn more

10-Day Weather Forecast

Advertisements
Track Severe Weather on mobile